sensor_id;sensor_type;location;lat;lon;timestamp;pressure;altitude;pressure_sealevel;temperature;humidity
13027;BME280;6580;42.680;23.324;2023-01-10T00:00:47;94547.41;;;5.33;100.00
13027;BME280;6580;42.680;23.324;2023-01-10T00:03:14;94544.78;;;5.33;100.00
13027;BME280;6580;42.680;23.324;2023-01-10T00:05:41;94540.75;;;5.29;100.00
13027;BME280;6580;42.680;23.324;2023-01-10T00:08:09;94507.16;;;5.22;100.00
13027;BME280;6580;42.680;23.324;2023-01-10T00:10:37;94541.13;;;5.44;100.00
13027;BME280;6580;42.680;23.324;2023-01-10T00:13:04;94533.47;;;5.50;100.00
13027;BME280;6580;42.680;23.324;2023-01-10T00:15:51;94554.19;;;5.45;100.00
13027;BME280;6580;42.680;23.324;2023-01-10T00:18:18;94529.91;;;5.32;100.00
13027;BME280;6580;42.680;23.324;2023-01-10T00:20:46;94540.22;;;5.26;100.00
13027;BME280;6580;42.680;23.324;2023-01-10T00:23:14;94501.16;;;5.29;100.00
13027;BME280;6580;42.680;23.324;2023-01-10T00:25:42;94523.84;;;5.22;100.00
13027;BME280;6580;42.680;23.324;2023-01-10T00:28:08;94538.59;;;5.06;100.00
13027;BME280;6580;42.680;23.324;2023-01-10T00:30:47;94499.84;;;5.06;100.00
13027;BME280;6580;42.680;23.324;2023-01-10T00:33:17;94539.75;;;4.85;100.00
13027;BME280;6580;42.680;23.324;2023-01-10T00:35:45;94518.72;;;5.11;100.00
13027;BME280;6580;42.680;23.324;2023-01-10T00:38:13;94523.34;;;5.00;100.00
13027;BME280;6580;42.680;23.324;2023-01-10T00:40:42;94499.97;;;5.05;100.00
13027;BME280;6580;42.680;23.324;2023-01-10T00:43:13;94457.00;;;4.86;100.00
13027;BME280;6580;42.680;23.324;2023-01-10T00:45:58;94489.44;;;4.96;100.00
13027;BME280;6580;42.680;23.324;2023-01-10T00:48:34;94441.97;;;4.96;100.00
13027;BME280;6580;42.680;23.324;2023-01-10T00:51:01;94465.72;;;4.86;100.00
13027;BME280;6580;42.680;23.324;2023-01-10T00:53:28;94499.19;;;4.86;100.00
13027;BME280;6580;42.680;23.324;2023-01-10T00:55:56;94480.59;;;4.87;100.00
13027;BME280;6580;42.680;23.324;2023-01-10T00:58:26;94516.97;;;4.84;100.00
13027;BME280;6580;42.680;23.324;2023-01-10T01:00:55;94507.34;;;5.01;100.00
13027;BME280;6580;42.680;23.324;2023-01-10T01:03:22;94432.22;;;5.05;100.00
13027;BME280;6580;42.680;23.324;2023-01-10T01:05:50;94507.56;;;4.81;100.00
13027;BME280;6580;42.680;23.324;2023-01-10T01:08:18;94478.84;;;5.14;100.00
13027;BME280;6580;42.680;23.324;2023-01-10T01:10:45;94478.59;;;5.08;100.00
13027;BME280;6580;42.680;23.324;2023-01-10T01:13:15;94482.75;;;5.10;100.00
13027;BME280;6580;42.680;23.324;2023-01-10T01:15:42;94489.41;;;5.14;100.00
13027;BME280;6580;42.680;23.324;2023-01-10T01:18:11;94477.81;;;4.98;100.00
13027;BME280;6580;42.680;23.324;2023-01-10T01:20:39;94480.16;;;4.92;100.00
13027;BME280;6580;42.680;23.324;2023-01-10T01:23:11;94473.97;;;5.19;100.00
13027;BME280;6580;42.680;23.324;2023-01-10T01:25:38;94465.13;;;5.38;100.00
13027;BME280;6580;42.680;23.324;2023-01-10T01:28:05;94508.78;;;5.32;100.00
13027;BME280;6580;42.680;23.324;2023-01-10T01:30:32;94463.97;;;5.13;100.00
13027;BME280;6580;42.680;23.324;2023-01-10T01:33:00;94504.03;;;4.99;100.00
13027;BME280;6580;42.680;23.324;2023-01-10T01:35:27;94491.56;;;4.83;100.00
13027;BME280;6580;42.680;23.324;2023-01-10T01:37:54;94497.47;;;5.13;100.00
13027;BME280;6580;42.680;23.324;2023-01-10T01:40:25;94430.56;;;5.04;100.00
13027;BME280;6580;42.680;23.324;2023-01-10T01:42:55;94470.72;;;4.89;100.00
13027;BME280;6580;42.680;23.324;2023-01-10T01:45:36;94483.47;;;5.03;100.00
13027;BME280;6580;42.680;23.324;2023-01-10T01:48:12;94472.97;;;5.30;100.00
13027;BME280;6580;42.680;23.324;2023-01-10T01:50:45;94463.94;;;5.23;100.00
13027;BME280;6580;42.680;23.324;2023-01-10T01:53:19;94451.75;;;5.12;100.00
13027;BME280;6580;42.680;23.324;2023-01-10T01:55:54;94452.28;;;5.25;100.00
13027;BME280;6580;42.680;23.324;2023-01-10T01:58:29;94468.22;;;5.33;100.00
13027;BME280;6580;42.680;23.324;2023-01-10T02:01:01;94462.97;;;5.24;100.00
13027;BME280;6580;42.680;23.324;2023-01-10T02:03:29;94448.47;;;5.37;100.00
13027;BME280;6580;42.680;23.324;2023-01-10T02:05:57;94427.66;;;5.34;100.00
13027;BME280;6580;42.680;23.324;2023-01-10T02:08:23;94404.88;;;5.33;100.00
13027;BME280;6580;42.680;23.324;2023-01-10T02:11:03;94410.75;;;5.27;100.00
13027;BME280;6580;42.680;23.324;2023-01-10T02:13:36;94424.13;;;5.43;100.00
13027;BME280;6580;42.680;23.324;2023-01-10T02:16:08;94429.78;;;5.48;100.00
13027;BME280;6580;42.680;23.324;2023-01-10T02:18:37;94424.47;;;5.58;100.00
13027;BME280;6580;42.680;23.324;2023-01-10T02:21:17;94417.88;;;5.44;100.00
13027;BME280;6580;42.680;23.324;2023-01-10T02:24:20;94404.81;;;5.43;100.00
13027;BME280;6580;42.680;23.324;2023-01-10T02:27:13;94414.78;;;5.49;100.00
13027;BME280;6580;42.680;23.324;2023-01-10T02:30:02;94387.31;;;5.42;100.00
13027;BME280;6580;42.680;23.324;2023-01-10T02:33:04;94408.44;;;5.42;100.00
13027;BME280;6580;42.680;23.324;2023-01-10T02:35:54;94397.81;;;5.51;100.00
13027;BME280;6580;42.680;23.324;2023-01-10T02:38:34;94411.94;;;5.60;100.00
13027;BME280;6580;42.680;23.324;2023-01-10T02:41:08;94415.44;;;5.60;100.00
13027;BME280;6580;42.680;23.324;2023-01-10T02:43:44;94383.22;;;5.74;100.00
13027;BME280;6580;42.680;23.324;2023-01-10T02:46:15;94396.31;;;5.66;100.00
13027;BME280;6580;42.680;23.324;2023-01-10T02:48:44;94400.56;;;5.59;100.00
13027;BME280;6580;42.680;23.324;2023-01-10T02:51:16;94408.56;;;5.67;100.00
13027;BME280;6580;42.680;23.324;2023-01-10T02:53:46;94391.31;;;5.73;100.00
13027;BME280;6580;42.680;23.324;2023-01-10T02:57:00;94398.59;;;5.61;100.00
13027;BME280;6580;42.680;23.324;2023-01-10T03:00:06;94413.13;;;5.48;100.00
13027;BME280;6580;42.680;23.324;2023-01-10T03:02:46;94415.78;;;5.48;100.00
13027;BME280;6580;42.680;23.324;2023-01-10T03:05:25;94428.78;;;5.32;100.00
13027;BME280;6580;42.680;23.324;2023-01-10T03:08:00;94412.97;;;5.49;100.00
13027;BME280;6580;42.680;23.324;2023-01-10T03:10:37;94420.59;;;5.52;100.00
13027;BME280;6580;42.680;23.324;2023-01-10T03:13:12;94433.63;;;5.63;100.00
13027;BME280;6580;42.680;23.324;2023-01-10T03:15:40;94430.63;;;5.49;100.00
13027;BME280;6580;42.680;23.324;2023-01-10T03:18:10;94428.00;;;5.49;100.00
13027;BME280;6580;42.680;23.324;2023-01-10T03:20:43;94428.19;;;5.65;100.00
13027;BME280;6580;42.680;23.324;2023-01-10T03:23:13;94398.00;;;5.67;100.00
13027;BME280;6580;42.680;23.324;2023-01-10T03:25:44;94408.72;;;5.66;100.00
13027;BME280;6580;42.680;23.324;2023-01-10T03:28:15;94435.72;;;5.87;100.00
13027;BME280;6580;42.680;23.324;2023-01-10T03:30:48;94430.59;;;6.03;100.00
13027;BME280;6580;42.680;23.324;2023-01-10T03:33:18;94432.19;;;6.13;100.00
13027;BME280;6580;42.680;23.324;2023-01-10T03:35:58;94413.31;;;6.08;100.00
13027;BME280;6580;42.680;23.324;2023-01-10T03:38:36;94417.69;;;6.17;100.00
13027;BME280;6580;42.680;23.324;2023-01-10T03:41:08;94422.59;;;6.12;100.00
13027;BME280;6580;42.680;23.324;2023-01-10T03:43:43;94422.81;;;6.18;100.00
13027;BME280;6580;42.680;23.324;2023-01-10T03:46:32;94398.81;;;6.12;100.00
13027;BME280;6580;42.680;23.324;2023-01-10T03:49:03;94410.06;;;6.14;100.00
13027;BME280;6580;42.680;23.324;2023-01-10T03:51:32;94410.34;;;6.28;100.00
13027;BME280;6580;42.680;23.324;2023-01-10T03:54:02;94397.88;;;6.21;100.00
13027;BME280;6580;42.680;23.324;2023-01-10T03:56:30;94398.88;;;6.20;100.00
13027;BME280;6580;42.680;23.324;2023-01-10T03:59:00;94377.06;;;6.18;100.00
13027;BME280;6580;42.680;23.324;2023-01-10T04:01:27;94362.75;;;6.28;100.00
13027;BME280;6580;42.680;23.324;2023-01-10T04:03:55;94362.31;;;6.15;100.00
13027;BME280;6580;42.680;23.324;2023-01-10T04:06:22;94341.50;;;5.95;100.00
13027;BME280;6580;42.680;23.324;2023-01-10T04:08:53;94341.09;;;5.55;100.00
13027;BME280;6580;42.680;23.324;2023-01-10T04:11:21;94325.19;;;5.65;100.00
13027;BME280;6580;42.680;23.324;2023-01-10T04:13:50;94335.63;;;5.84;100.00
13027;BME280;6580;42.680;23.324;2023-01-10T04:16:17;94334.53;;;5.77;100.00
13027;BME280;6580;42.680;23.324;2023-01-10T04:18:44;94334.25;;;5.80;100.00
13027;BME280;6580;42.680;23.324;2023-01-10T04:21:12;94330.66;;;5.81;100.00
13027;BME280;6580;42.680;23.324;2023-01-10T04:23:39;94345.38;;;5.74;100.00
13027;BME280;6580;42.680;23.324;2023-01-10T04:26:08;94373.75;;;5.81;100.00
13027;BME280;6580;42.680;23.324;2023-01-10T04:28:38;94400.31;;;5.80;100.00
13027;BME280;6580;42.680;23.324;2023-01-10T04:31:05;94409.78;;;5.73;100.00
13027;BME280;6580;42.680;23.324;2023-01-10T04:33:31;94397.31;;;5.92;100.00
13027;BME280;6580;42.680;23.324;2023-01-10T04:35:58;94413.75;;;5.86;100.00
13027;BME280;6580;42.680;23.324;2023-01-10T04:38:25;94429.31;;;5.89;100.00
13027;BME280;6580;42.680;23.324;2023-01-10T04:40:53;94418.06;;;6.04;100.00
13027;BME280;6580;42.680;23.324;2023-01-10T04:43:22;94418.75;;;6.24;100.00
13027;BME280;6580;42.680;23.324;2023-01-10T04:45:49;94412.34;;;6.26;100.00
13027;BME280;6580;42.680;23.324;2023-01-10T04:48:15;94411.50;;;6.26;100.00
13027;BME280;6580;42.680;23.324;2023-01-10T04:50:48;94396.22;;;6.37;100.00
13027;BME280;6580;42.680;23.324;2023-01-10T04:53:15;94375.88;;;6.38;100.00
13027;BME280;6580;42.680;23.324;2023-01-10T04:55:42;94370.69;;;6.28;100.00
13027;BME280;6580;42.680;23.324;2023-01-10T04:58:09;94386.50;;;6.20;100.00
13027;BME280;6580;42.680;23.324;2023-01-10T05:00:40;94399.97;;;6.09;100.00
13027;BME280;6580;42.680;23.324;2023-01-10T05:03:07;94400.09;;;6.08;100.00
13027;BME280;6580;42.680;23.324;2023-01-10T05:05:34;94391.28;;;6.17;100.00
13027;BME280;6580;42.680;23.324;2023-01-10T05:08:02;94369.13;;;6.18;100.00
13027;BME280;6580;42.680;23.324;2023-01-10T05:10:30;94373.66;;;6.25;100.00
13027;BME280;6580;42.680;23.324;2023-01-10T05:12:57;94366.81;;;6.15;100.00
13027;BME280;6580;42.680;23.324;2023-01-10T05:15:27;94360.88;;;6.21;100.00
13027;BME280;6580;42.680;23.324;2023-01-10T05:17:58;94361.13;;;6.27;100.00
13027;BME280;6580;42.680;23.324;2023-01-10T05:20:25;94352.03;;;6.30;100.00
13027;BME280;6580;42.680;23.324;2023-01-10T05:22:56;94349.44;;;6.38;100.00
13027;BME280;6580;42.680;23.324;2023-01-10T05:25:25;94343.81;;;6.33;100.00
13027;BME280;6580;42.680;23.324;2023-01-10T05:27:52;94351.84;;;6.06;100.00
13027;BME280;6580;42.680;23.324;2023-01-10T05:30:20;94359.31;;;6.10;100.00
13027;BME280;6580;42.680;23.324;2023-01-10T05:32:46;94363.59;;;6.29;100.00
13027;BME280;6580;42.680;23.324;2023-01-10T05:35:14;94363.22;;;6.41;100.00
13027;BME280;6580;42.680;23.324;2023-01-10T05:37:41;94329.63;;;6.34;100.00
13027;BME280;6580;42.680;23.324;2023-01-10T05:40:10;94365.00;;;6.41;100.00
13027;BME280;6580;42.680;23.324;2023-01-10T05:42:40;94384.38;;;6.41;100.00
13027;BME280;6580;42.680;23.324;2023-01-10T05:45:08;94387.78;;;6.34;100.00
13027;BME280;6580;42.680;23.324;2023-01-10T05:47:35;94396.38;;;6.36;100.00
13027;BME280;6580;42.680;23.324;2023-01-10T05:50:02;94382.41;;;6.43;100.00
13027;BME280;6580;42.680;23.324;2023-01-10T05:52:30;94375.47;;;6.68;100.00
13027;BME280;6580;42.680;23.324;2023-01-10T05:54:57;94366.75;;;6.75;100.00
13027;BME280;6580;42.680;23.324;2023-01-10T05:57:36;94359.00;;;6.56;100.00
13027;BME280;6580;42.680;23.324;2023-01-10T06:00:08;94364.47;;;6.55;100.00
13027;BME280;6580;42.680;23.324;2023-01-10T06:02:37;94371.63;;;6.62;100.00
13027;BME280;6580;42.680;23.324;2023-01-10T06:05:04;94375.75;;;6.65;100.00
13027;BME280;6580;42.680;23.324;2023-01-10T06:07:33;94376.81;;;6.29;100.00
13027;BME280;6580;42.680;23.324;2023-01-10T06:10:00;94378.97;;;6.51;100.00
13027;BME280;6580;42.680;23.324;2023-01-10T06:12:28;94385.50;;;6.64;100.00
13027;BME280;6580;42.680;23.324;2023-01-10T06:14:55;94383.22;;;6.69;100.00
13027;BME280;6580;42.680;23.324;2023-01-10T06:17:21;94379.81;;;6.77;100.00
13027;BME280;6580;42.680;23.324;2023-01-10T06:19:48;94379.81;;;6.77;100.00
13027;BME280;6580;42.680;23.324;2023-01-10T06:22:17;94362.59;;;6.73;100.00
13027;BME280;6580;42.680;23.324;2023-01-10T06:24:48;94363.72;;;6.70;100.00
13027;BME280;6580;42.680;23.324;2023-01-10T06:27:19;94376.81;;;6.72;100.00
13027;BME280;6580;42.680;23.324;2023-01-10T06:29:46;94384.63;;;6.56;100.00
13027;BME280;6580;42.680;23.324;2023-01-10T06:32:13;94370.66;;;6.63;100.00
13027;BME280;6580;42.680;23.324;2023-01-10T06:34:43;94358.53;;;6.86;100.00
13027;BME280;6580;42.680;23.324;2023-01-10T06:37:16;94368.50;;;6.92;100.00
13027;BME280;6580;42.680;23.324;2023-01-10T06:39:46;94371.16;;;6.92;100.00
13027;BME280;6580;42.680;23.324;2023-01-10T06:42:14;94369.66;;;6.90;100.00
13027;BME280;6580;42.680;23.324;2023-01-10T06:44:42;94371.66;;;6.96;100.00
13027;BME280;6580;42.680;23.324;2023-01-10T06:47:09;94362.53;;;7.23;100.00
13027;BME280;6580;42.680;23.324;2023-01-10T06:49:37;94371.09;;;7.09;100.00
13027;BME280;6580;42.680;23.324;2023-01-10T06:52:06;94377.69;;;7.13;100.00
13027;BME280;6580;42.680;23.324;2023-01-10T06:54:35;94373.25;;;7.14;100.00
13027;BME280;6580;42.680;23.324;2023-01-10T06:57:03;94373.09;;;7.15;100.00
13027;BME280;6580;42.680;23.324;2023-01-10T06:59:31;94373.47;;;7.28;100.00
13027;BME280;6580;42.680;23.324;2023-01-10T07:01:58;94364.22;;;7.32;100.00
13027;BME280;6580;42.680;23.324;2023-01-10T07:04:25;94359.22;;;7.21;100.00
13027;BME280;6580;42.680;23.324;2023-01-10T07:06:53;94357.13;;;7.33;100.00
13027;BME280;6580;42.680;23.324;2023-01-10T07:09:21;94356.56;;;7.21;100.00
13027;BME280;6580;42.680;23.324;2023-01-10T07:11:47;94354.28;;;7.26;100.00
13027;BME280;6580;42.680;23.324;2023-01-10T07:14:18;94351.88;;;7.49;100.00
13027;BME280;6580;42.680;23.324;2023-01-10T07:16:44;94350.34;;;7.38;100.00
13027;BME280;6580;42.680;23.324;2023-01-10T07:19:14;94338.28;;;7.36;100.00
13027;BME280;6580;42.680;23.324;2023-01-10T07:21:42;94332.25;;;7.26;100.00
13027;BME280;6580;42.680;23.324;2023-01-10T07:24:12;94339.22;;;7.27;100.00
13027;BME280;6580;42.680;23.324;2023-01-10T07:26:39;94339.56;;;7.32;100.00
13027;BME280;6580;42.680;23.324;2023-01-10T07:29:07;94335.41;;;7.29;100.00
13027;BME280;6580;42.680;23.324;2023-01-10T07:31:40;94332.13;;;7.27;100.00
13027;BME280;6580;42.680;23.324;2023-01-10T07:34:09;94319.84;;;7.26;100.00
13027;BME280;6580;42.680;23.324;2023-01-10T07:36:37;94334.53;;;7.21;100.00
13027;BME280;6580;42.680;23.324;2023-01-10T07:39:04;94326.41;;;7.14;100.00
13027;BME280;6580;42.680;23.324;2023-01-10T07:41:31;94321.91;;;7.07;100.00
13027;BME280;6580;42.680;23.324;2023-01-10T07:44:00;94333.88;;;7.19;100.00
13027;BME280;6580;42.680;23.324;2023-01-10T07:46:28;94334.47;;;6.97;100.00
13027;BME280;6580;42.680;23.324;2023-01-10T07:48:57;94309.13;;;6.95;100.00
13027;BME280;6580;42.680;23.324;2023-01-10T07:51:24;94325.97;;;6.94;100.00
13027;BME280;6580;42.680;23.324;2023-01-10T07:53:51;94320.34;;;6.89;100.00
13027;BME280;6580;42.680;23.324;2023-01-10T07:56:18;94313.72;;;6.85;100.00
13027;BME280;6580;42.680;23.324;2023-01-10T07:58:46;94319.75;;;7.03;100.00
13027;BME280;6580;42.680;23.324;2023-01-10T08:01:18;94319.94;;;7.09;100.00
13027;BME280;6580;42.680;23.324;2023-01-10T08:03:44;94326.97;;;6.93;100.00
13027;BME280;6580;42.680;23.324;2023-01-10T08:06:13;94328.97;;;6.91;100.00
13027;BME280;6580;42.680;23.324;2023-01-10T08:08:42;94326.66;;;6.96;100.00
13027;BME280;6580;42.680;23.324;2023-01-10T08:11:09;94324.06;;;7.03;100.00
13027;BME280;6580;42.680;23.324;2023-01-10T08:13:35;94327.84;;;7.01;100.00
13027;BME280;6580;42.680;23.324;2023-01-10T08:16:08;94326.16;;;6.92;100.00
13027;BME280;6580;42.680;23.324;2023-01-10T08:18:35;94326.03;;;7.02;100.00
13027;BME280;6580;42.680;23.324;2023-01-10T08:21:03;94315.75;;;6.99;100.00
13027;BME280;6580;42.680;23.324;2023-01-10T08:23:32;94324.41;;;7.08;100.00
13027;BME280;6580;42.680;23.324;2023-01-10T08:26:00;94317.59;;;6.98;100.00
13027;BME280;6580;42.680;23.324;2023-01-10T08:28:27;94300.06;;;6.97;100.00
13027;BME280;6580;42.680;23.324;2023-01-10T08:30:54;94285.03;;;7.05;100.00
13027;BME280;6580;42.680;23.324;2023-01-10T08:33:22;94284.28;;;6.88;100.00
13027;BME280;6580;42.680;23.324;2023-01-10T08:35:50;94292.41;;;6.94;100.00
13027;BME280;6580;42.680;23.324;2023-01-10T08:38:17;94283.81;;;6.92;100.00
13027;BME280;6580;42.680;23.324;2023-01-10T08:40:48;94284.13;;;6.89;100.00
13027;BME280;6580;42.680;23.324;2023-01-10T08:43:15;94280.59;;;6.81;100.00
13027;BME280;6580;42.680;23.324;2023-01-10T08:45:42;94279.31;;;6.85;100.00
13027;BME280;6580;42.680;23.324;2023-01-10T08:48:10;94280.56;;;7.06;100.00
13027;BME280;6580;42.680;23.324;2023-01-10T08:50:37;94274.44;;;7.13;100.00
13027;BME280;6580;42.680;23.324;2023-01-10T08:53:04;94264.03;;;7.12;100.00
13027;BME280;6580;42.680;23.324;2023-01-10T08:55:31;94274.34;;;7.39;100.00
13027;BME280;6580;42.680;23.324;2023-01-10T08:58:01;94271.91;;;7.45;100.00
13027;BME280;6580;42.680;23.324;2023-01-10T09:00:29;94278.84;;;7.46;100.00
13027;BME280;6580;42.680;23.324;2023-01-10T09:02:56;94277.22;;;7.45;100.00
13027;BME280;6580;42.680;23.324;2023-01-10T09:05:23;94273.75;;;7.53;100.00
13027;BME280;6580;42.680;23.324;2023-01-10T09:07:51;94271.25;;;7.51;100.00
13027;BME280;6580;42.680;23.324;2023-01-10T09:10:18;94260.66;;;7.43;100.00
13027;BME280;6580;42.680;23.324;2023-01-10T09:12:45;94260.66;;;7.51;100.00
13027;BME280;6580;42.680;23.324;2023-01-10T09:15:23;94261.97;;;7.47;100.00
13027;BME280;6580;42.680;23.324;2023-01-10T09:17:52;94273.59;;;7.70;100.00
13027;BME280;6580;42.680;23.324;2023-01-10T09:20:20;94274.25;;;7.72;100.00
13027;BME280;6580;42.680;23.324;2023-01-10T09:22:46;94235.16;;;7.42;100.00
13027;BME280;6580;42.680;23.324;2023-01-10T09:25:13;94254.72;;;7.57;100.00
13027;BME280;6580;42.680;23.324;2023-01-10T09:27:40;94263.81;;;7.55;100.00
13027;BME280;6580;42.680;23.324;2023-01-10T09:30:08;94264.66;;;7.71;100.00
13027;BME280;6580;42.680;23.324;2023-01-10T09:32:36;94247.75;;;7.56;100.00
13027;BME280;6580;42.680;23.324;2023-01-10T09:35:06;94257.03;;;7.68;100.00
13027;BME280;6580;42.680;23.324;2023-01-10T09:37:33;94247.44;;;7.59;100.00
13027;BME280;6580;42.680;23.324;2023-01-10T09:40:01;94246.44;;;7.68;100.00
13027;BME280;6580;42.680;23.324;2023-01-10T09:45:30;94233.69;;;7.80;100.00
13027;BME280;6580;42.680;23.324;2023-01-10T09:48:02;94225.41;;;7.75;100.00
13027;BME280;6580;42.680;23.324;2023-01-10T09:50:36;94215.47;;;7.77;100.00
13027;BME280;6580;42.680;23.324;2023-01-10T09:53:12;94214.97;;;7.89;100.00
13027;BME280;6580;42.680;23.324;2023-01-10T09:55:42;94222.25;;;7.95;100.00
13027;BME280;6580;42.680;23.324;2023-01-10T09:58:13;94207.34;;;7.86;100.00
13027;BME280;6580;42.680;23.324;2023-01-10T10:00:46;94213.97;;;7.98;100.00
13027;BME280;6580;42.680;23.324;2023-01-10T10:03:24;94212.16;;;7.91;100.00
13027;BME280;6580;42.680;23.324;2023-01-10T10:05:53;94209.50;;;7.75;100.00
13027;BME280;6580;42.680;23.324;2023-01-10T10:08:20;94203.69;;;7.87;100.00
13027;BME280;6580;42.680;23.324;2023-01-10T10:10:58;94193.41;;;7.84;100.00
13027;BME280;6580;42.680;23.324;2023-01-10T10:13:35;94195.75;;;7.95;100.00
13027;BME280;6580;42.680;23.324;2023-01-10T10:16:14;94206.00;;;7.66;100.00
13027;BME280;6580;42.680;23.324;2023-01-10T10:19:01;94213.63;;;7.69;100.00
13027;BME280;6580;42.680;23.324;2023-01-10T10:21:36;94207.00;;;7.49;100.00
13027;BME280;6580;42.680;23.324;2023-01-10T10:24:20;94203.69;;;7.55;100.00
13027;BME280;6580;42.680;23.324;2023-01-10T10:26:55;94208.69;;;7.58;100.00
13027;BME280;6580;42.680;23.324;2023-01-10T10:29:44;94197.91;;;7.60;100.00
13027;BME280;6580;42.680;23.324;2023-01-10T10:32:29;94199.22;;;7.56;100.00
13027;BME280;6580;42.680;23.324;2023-01-10T10:35:03;94191.28;;;7.64;100.00
13027;BME280;6580;42.680;23.324;2023-01-10T10:37:39;94194.78;;;7.64;100.00
13027;BME280;6580;42.680;23.324;2023-01-10T10:40:16;94187.16;;;7.45;100.00
13027;BME280;6580;42.680;23.324;2023-01-10T10:42:48;94192.28;;;7.47;100.00
13027;BME280;6580;42.680;23.324;2023-01-10T10:45:19;94183.50;;;7.54;100.00
13027;BME280;6580;42.680;23.324;2023-01-10T10:47:54;94176.56;;;7.77;100.00
13027;BME280;6580;42.680;23.324;2023-01-10T10:50:29;94177.84;;;7.89;100.00
13027;BME280;6580;42.680;23.324;2023-01-10T10:53:00;94169.41;;;7.94;100.00
13027;BME280;6580;42.680;23.324;2023-01-10T10:55:30;94158.66;;;7.79;100.00
13027;BME280;6580;42.680;23.324;2023-01-10T10:58:02;94158.50;;;7.89;100.00
13027;BME280;6580;42.680;23.324;2023-01-10T11:00:31;94176.69;;;7.76;100.00
13027;BME280;6580;42.680;23.324;2023-01-10T11:03:03;94176.88;;;7.74;100.00
13027;BME280;6580;42.680;23.324;2023-01-10T11:05:35;94175.03;;;7.75;100.00
13027;BME280;6580;42.680;23.324;2023-01-10T11:08:04;94163.28;;;7.85;100.00
13027;BME280;6580;42.680;23.324;2023-01-10T11:10:35;94154.34;;;7.86;100.00
13027;BME280;6580;42.680;23.324;2023-01-10T11:13:07;94147.88;;;7.89;100.00
13027;BME280;6580;42.680;23.324;2023-01-10T11:15:42;94133.63;;;7.90;100.00
13027;BME280;6580;42.680;23.324;2023-01-10T11:18:14;94150.31;;;8.06;100.00
13027;BME280;6580;42.680;23.324;2023-01-10T11:20:51;94146.88;;;7.90;100.00
13027;BME280;6580;42.680;23.324;2023-01-10T11:23:25;94133.16;;;7.54;100.00
13027;BME280;6580;42.680;23.324;2023-01-10T11:25:53;94140.78;;;7.57;100.00
13027;BME280;6580;42.680;23.324;2023-01-10T11:28:24;94144.44;;;7.40;100.00
13027;BME280;6580;42.680;23.324;2023-01-10T11:30:53;94143.94;;;7.45;100.00
13027;BME280;6580;42.680;23.324;2023-01-10T11:33:25;94155.84;;;7.49;100.00
13027;BME280;6580;42.680;23.324;2023-01-10T11:35:59;94151.72;;;7.54;100.00
13027;BME280;6580;42.680;23.324;2023-01-10T11:38:27;94154.38;;;7.54;100.00
13027;BME280;6580;42.680;23.324;2023-01-10T11:40:57;94139.78;;;7.74;100.00
13027;BME280;6580;42.680;23.324;2023-01-10T11:46:13;94134.50;;;7.42;100.00
13027;BME280;6580;42.680;23.324;2023-01-10T11:48:45;94133.66;;;7.26;100.00
13027;BME280;6580;42.680;23.324;2023-01-10T11:51:20;94147.75;;;7.42;100.00
13027;BME280;6580;42.680;23.324;2023-01-10T11:53:55;94137.16;;;7.42;100.00
13027;BME280;6580;42.680;23.324;2023-01-10T11:56:25;94145.91;;;7.59;100.00
13027;BME280;6580;42.680;23.324;2023-01-10T11:58:54;94139.44;;;7.69;100.00
13027;BME280;6580;42.680;23.324;2023-01-10T12:01:29;94137.63;;;7.86;100.00
13027;BME280;6580;42.680;23.324;2023-01-10T12:03:57;94127.88;;;7.54;100.00
13027;BME280;6580;42.680;23.324;2023-01-10T12:06:27;94133.00;;;7.64;100.00
13027;BME280;6580;42.680;23.324;2023-01-10T12:08:54;94129.84;;;7.76;100.00
13027;BME280;6580;42.680;23.324;2023-01-10T12:11:26;94138.13;;;7.81;100.00
13027;BME280;6580;42.680;23.324;2023-01-10T12:13:57;94129.63;;;8.02;100.00
13027;BME280;6580;42.680;23.324;2023-01-10T12:16:26;94115.72;;;7.92;100.00
13027;BME280;6580;42.680;23.324;2023-01-10T12:18:54;94129.81;;;7.92;100.00
13027;BME280;6580;42.680;23.324;2023-01-10T12:21:34;94130.34;;;7.72;100.00
13027;BME280;6580;42.680;23.324;2023-01-10T12:24:13;94136.63;;;7.79;100.00
13027;BME280;6580;42.680;23.324;2023-01-10T12:26:42;94138.09;;;7.89;100.00
13027;BME280;6580;42.680;23.324;2023-01-10T12:29:14;94147.88;;;7.89;100.00
13027;BME280;6580;42.680;23.324;2023-01-10T12:31:42;94143.72;;;7.86;100.00
13027;BME280;6580;42.680;23.324;2023-01-10T12:34:19;94147.72;;;7.98;100.00
13027;BME280;6580;42.680;23.324;2023-01-10T12:36:54;94131.97;;;7.89;100.00
13027;BME280;6580;42.680;23.324;2023-01-10T12:39:27;94132.94;;;7.96;100.00
13027;BME280;6580;42.680;23.324;2023-01-10T12:42:15;94129.81;;;7.92;100.00
13027;BME280;6580;42.680;23.324;2023-01-10T12:45:04;94114.44;;;7.88;100.00
13027;BME280;6580;42.680;23.324;2023-01-10T12:47:46;94110.13;;;7.79;100.00
13027;BME280;6580;42.680;23.324;2023-01-10T12:50:16;94111.75;;;7.96;100.00
13027;BME280;6580;42.680;23.324;2023-01-10T12:52:53;94123.34;;;8.02;100.00
13027;BME280;6580;42.680;23.324;2023-01-10T12:55:26;94133.59;;;7.98;100.00
13027;BME280;6580;42.680;23.324;2023-01-10T12:57:57;94136.59;;;8.02;100.00
13027;BME280;6580;42.680;23.324;2023-01-10T13:00:28;94135.94;;;8.01;100.00
13027;BME280;6580;42.680;23.324;2023-01-10T13:02:59;94133.28;;;8.01;100.00
13027;BME280;6580;42.680;23.324;2023-01-10T13:05:29;94132.44;;;8.08;100.00
13027;BME280;6580;42.680;23.324;2023-01-10T13:08:04;94145.88;;;8.06;100.00
13027;BME280;6580;42.680;23.324;2023-01-10T13:10:35;94135.41;;;8.13;100.00
13027;BME280;6580;42.680;23.324;2023-01-10T13:13:13;94137.06;;;8.14;100.00
13027;BME280;6580;42.680;23.324;2023-01-10T13:15:47;94133.75;;;8.12;100.00
13027;BME280;6580;42.680;23.324;2023-01-10T13:18:23;94131.91;;;8.12;100.00
13027;BME280;6580;42.680;23.324;2023-01-10T13:21:02;94132.56;;;8.14;100.00
13027;BME280;6580;42.680;23.324;2023-01-10T13:23:47;94149.97;;;8.33;100.00
13027;BME280;6580;42.680;23.324;2023-01-10T13:26:14;94144.69;;;8.25;100.00